sensor_id;sensor_type;location;lat;lon;timestamp;temperature;humidity
44707;DHT22;30433;45.596;8.408;2023-02-28T00:01:52;4.30;99.90
44707;DHT22;30433;45.596;8.408;2023-02-28T00:07:54;4.10;99.90
44707;DHT22;30433;45.596;8.408;2023-02-28T00:13:56;4.10;99.90
44707;DHT22;30433;45.596;8.408;2023-02-28T00:19:59;4.10;99.90
44707;DHT22;30433;45.596;8.408;2023-02-28T00:26:12;4.00;99.90
44707;DHT22;30433;45.596;8.408;2023-02-28T00:32:14;4.00;99.90
44707;DHT22;30433;45.596;8.408;2023-02-28T00:38:17;3.90;99.90
44707;DHT22;30433;45.596;8.408;2023-02-28T00:44:19;4.00;99.90
44707;DHT22;30433;45.596;8.408;2023-02-28T00:50:21;4.00;99.90
44707;DHT22;30433;45.596;8.408;2023-02-28T00:56:27;4.00;99.90
44707;DHT22;30433;45.596;8.408;2023-02-28T01:02:29;3.70;99.90
44707;DHT22;30433;45.596;8.408;2023-02-28T01:08:30;3.70;99.90
44707;DHT22;30433;45.596;8.408;2023-02-28T01:14:34;4.10;99.90
44707;DHT22;30433;45.596;8.408;2023-02-28T01:20:36;4.10;99.90
44707;DHT22;30433;45.596;8.408;2023-02-28T01:26:38;3.70;99.90
44707;DHT22;30433;45.596;8.408;2023-02-28T01:32:41;3.60;99.90
44707;DHT22;30433;45.596;8.408;2023-02-28T01:38:43;3.50;99.90
44707;DHT22;30433;45.596;8.408;2023-02-28T01:44:55;3.40;99.90
44707;DHT22;30433;45.596;8.408;2023-02-28T01:51:00;3.40;99.90
44707;DHT22;30433;45.596;8.408;2023-02-28T01:57:03;3.30;99.90
44707;DHT22;30433;45.596;8.408;2023-02-28T02:03:07;3.20;99.90
44707;DHT22;30433;45.596;8.408;2023-02-28T02:09:11;3.20;99.90
44707;DHT22;30433;45.596;8.408;2023-02-28T02:15:14;3.10;99.90
44707;DHT22;30433;45.596;8.408;2023-02-28T02:21:38;3.10;99.90
44707;DHT22;30433;45.596;8.408;2023-02-28T02:40:32;3.10;99.90
44707;DHT22;30433;45.596;8.408;2023-02-28T02:46:35;3.30;99.90
44707;DHT22;30433;45.596;8.408;2023-02-28T02:52:40;3.40;99.90
44707;DHT22;30433;45.596;8.408;2023-02-28T02:58:43;3.40;99.90
44707;DHT22;30433;45.596;8.408;2023-02-28T03:04:46;3.30;99.90
44707;DHT22;30433;45.596;8.408;2023-02-28T03:10:50;3.40;99.90
44707;DHT22;30433;45.596;8.408;2023-02-28T03:16:57;3.40;99.90
44707;DHT22;30433;45.596;8.408;2023-02-28T03:23:03;3.60;99.90
44707;DHT22;30433;45.596;8.408;2023-02-28T03:29:08;3.60;99.90
44707;DHT22;30433;45.596;8.408;2023-02-28T03:35:19;3.40;99.90
44707;DHT22;30433;45.596;8.408;2023-02-28T03:41:23;3.40;99.90
44707;DHT22;30433;45.596;8.408;2023-02-28T03:47:28;3.30;99.90
44707;DHT22;30433;45.596;8.408;2023-02-28T03:53:32;3.30;99.90
44707;DHT22;30433;45.596;8.408;2023-02-28T03:59:36;3.20;99.90
44707;DHT22;30433;45.596;8.408;2023-02-28T04:05:45;3.30;99.90
44707;DHT22;30433;45.596;8.408;2023-02-28T04:11:50;3.10;99.90
44707;DHT22;30433;45.596;8.408;2023-02-28T04:17:53;3.10;99.90
44707;DHT22;30433;45.596;8.408;2023-02-28T04:23:54;3.50;99.90
44707;DHT22;30433;45.596;8.408;2023-02-28T04:30:02;3.50;99.90
44707;DHT22;30433;45.596;8.408;2023-02-28T04:36:05;3.40;99.90
44707;DHT22;30433;45.596;8.408;2023-02-28T04:42:07;3.30;99.90
44707;DHT22;30433;45.596;8.408;2023-02-28T04:48:10;3.20;99.90
44707;DHT22;30433;45.596;8.408;2023-02-28T04:54:12;3.30;99.90
44707;DHT22;30433;45.596;8.408;2023-02-28T05:00:16;3.50;99.90
44707;DHT22;30433;45.596;8.408;2023-02-28T05:06:20;3.70;99.90
44707;DHT22;30433;45.596;8.408;2023-02-28T05:12:22;3.30;99.90
44707;DHT22;30433;45.596;8.408;2023-02-28T05:18:24;3.20;99.90
44707;DHT22;30433;45.596;8.408;2023-02-28T05:24:27;3.10;99.90
44707;DHT22;30433;45.596;8.408;2023-02-28T05:30:29;3.30;99.90
44707;DHT22;30433;45.596;8.408;2023-02-28T05:36:32;3.30;99.90
44707;DHT22;30433;45.596;8.408;2023-02-28T05:42:35;3.20;99.90
44707;DHT22;30433;45.596;8.408;2023-02-28T05:48:38;3.20;99.90
44707;DHT22;30433;45.596;8.408;2023-02-28T05:54:40;3.20;99.90
44707;DHT22;30433;45.596;8.408;2023-02-28T06:00:43;3.10;99.90
44707;DHT22;30433;45.596;8.408;2023-02-28T06:06:45;3.30;99.90
44707;DHT22;30433;45.596;8.408;2023-02-28T06:12:47;3.60;99.90
44707;DHT22;30433;45.596;8.408;2023-02-28T06:18:50;3.60;99.90
44707;DHT22;30433;45.596;8.408;2023-02-28T06:24:52;3.50;99.90
44707;DHT22;30433;45.596;8.408;2023-02-28T06:30:55;3.40;99.90
44707;DHT22;30433;45.596;8.408;2023-02-28T06:36:58;3.30;99.90
44707;DHT22;30433;45.596;8.408;2023-02-28T06:43:02;3.30;99.90
44707;DHT22;30433;45.596;8.408;2023-02-28T06:49:04;3.30;99.90
44707;DHT22;30433;45.596;8.408;2023-02-28T06:55:10;3.20;99.90
44707;DHT22;30433;45.596;8.408;2023-02-28T07:01:13;3.30;99.90
44707;DHT22;30433;45.596;8.408;2023-02-28T07:07:15;3.30;99.90
44707;DHT22;30433;45.596;8.408;2023-02-28T07:13:18;3.30;99.90
44707;DHT22;30433;45.596;8.408;2023-02-28T07:19:20;3.50;99.90
44707;DHT22;30433;45.596;8.408;2023-02-28T07:25:22;3.60;99.90
44707;DHT22;30433;45.596;8.408;2023-02-28T07:31:25;3.70;99.90
44707;DHT22;30433;45.596;8.408;2023-02-28T07:37:27;3.70;99.90
44707;DHT22;30433;45.596;8.408;2023-02-28T07:43:31;3.80;99.90
44707;DHT22;30433;45.596;8.408;2023-02-28T07:49:35;3.90;99.90
44707;DHT22;30433;45.596;8.408;2023-02-28T07:55:37;3.80;99.90
44707;DHT22;30433;45.596;8.408;2023-02-28T08:01:38;3.90;99.90
44707;DHT22;30433;45.596;8.408;2023-02-28T08:07:42;3.80;99.90
44707;DHT22;30433;45.596;8.408;2023-02-28T08:13:44;4.20;99.90
44707;DHT22;30433;45.596;8.408;2023-02-28T08:19:46;4.20;99.90
44707;DHT22;30433;45.596;8.408;2023-02-28T08:25:54;4.30;99.90
44707;DHT22;30433;45.596;8.408;2023-02-28T08:31:56;4.40;99.90
44707;DHT22;30433;45.596;8.408;2023-02-28T08:37:59;4.30;99.90
44707;DHT22;30433;45.596;8.408;2023-02-28T08:44:02;4.50;99.90
44707;DHT22;30433;45.596;8.408;2023-02-28T08:50:04;4.60;99.90
44707;DHT22;30433;45.596;8.408;2023-02-28T08:56:07;4.60;99.90
44707;DHT22;30433;45.596;8.408;2023-02-28T09:02:11;4.60;99.90
44707;DHT22;30433;45.596;8.408;2023-02-28T09:08:13;4.80;99.90
44707;DHT22;30433;45.596;8.408;2023-02-28T09:14:15;4.80;99.90
44707;DHT22;30433;45.596;8.408;2023-02-28T09:20:19;4.80;99.90
44707;DHT22;30433;45.596;8.408;2023-02-28T09:26:22;5.00;99.70
44707;DHT22;30433;45.596;8.408;2023-02-28T09:32:24;5.00;99.60
44707;DHT22;30433;45.596;8.408;2023-02-28T09:38:27;5.10;99.80
44707;DHT22;30433;45.596;8.408;2023-02-28T09:44:30;5.20;99.40
44707;DHT22;30433;45.596;8.408;2023-02-28T09:50:35;5.20;98.90
44707;DHT22;30433;45.596;8.408;2023-02-28T09:56:40;5.20;98.70
44707;DHT22;30433;45.596;8.408;2023-02-28T10:09:03;5.40;99.30
44707;DHT22;30433;45.596;8.408;2023-02-28T10:15:08;5.30;98.20
44707;DHT22;30433;45.596;8.408;2023-02-28T10:21:17;5.50;99.00
44707;DHT22;30433;45.596;8.408;2023-02-28T10:27:21;5.50;97.40
44707;DHT22;30433;45.596;8.408;2023-02-28T10:33:25;5.50;98.10
44707;DHT22;30433;45.596;8.408;2023-02-28T10:39:37;5.60;97.70
44707;DHT22;30433;45.596;8.408;2023-02-28T10:45:39;5.70;97.20
44707;DHT22;30433;45.596;8.408;2023-02-28T10:51:42;5.80;96.30
44707;DHT22;30433;45.596;8.408;2023-02-28T10:57:44;5.80;96.70
44707;DHT22;30433;45.596;8.408;2023-02-28T11:03:48;5.80;97.20
44707;DHT22;30433;45.596;8.408;2023-02-28T11:09:51;6.10;97.00
44707;DHT22;30433;45.596;8.408;2023-02-28T11:15:54;6.00;97.50
44707;DHT22;30433;45.596;8.408;2023-02-28T11:21:57;6.10;97.10
44707;DHT22;30433;45.596;8.408;2023-02-28T11:28:02;6.10;97.60
44707;DHT22;30433;45.596;8.408;2023-02-28T11:34:22;6.20;97.80
44707;DHT22;30433;45.596;8.408;2023-02-28T11:40:27;6.30;97.40
44707;DHT22;30433;45.596;8.408;2023-02-28T11:46:33;6.20;97.10
44707;DHT22;30433;45.596;8.408;2023-02-28T11:52:36;6.30;97.80
44707;DHT22;30433;45.596;8.408;2023-02-28T11:58:44;6.20;96.90
44707;DHT22;30433;45.596;8.408;2023-02-28T12:04:53;6.40;96.90
44707;DHT22;30433;45.596;8.408;2023-02-28T12:11:00;6.40;96.80
44707;DHT22;30433;45.596;8.408;2023-02-28T12:17:07;6.50;97.30
44707;DHT22;30433;45.596;8.408;2023-02-28T12:23:27;6.60;97.00
44707;DHT22;30433;45.596;8.408;2023-02-28T12:29:37;6.60;96.50
44707;DHT22;30433;45.596;8.408;2023-02-28T12:35:44;6.60;96.80
44707;DHT22;30433;45.596;8.408;2023-02-28T12:41:51;6.70;96.90
44707;DHT22;30433;45.596;8.408;2023-02-28T12:47:55;6.80;96.70
44707;DHT22;30433;45.596;8.408;2023-02-28T12:54:01;6.60;96.10
44707;DHT22;30433;45.596;8.408;2023-02-28T13:00:10;6.70;97.00
44707;DHT22;30433;45.596;8.408;2023-02-28T13:12:31;6.70;96.50
44707;DHT22;30433;45.596;8.408;2023-02-28T13:18:36;6.80;96.40
44707;DHT22;30433;45.596;8.408;2023-02-28T13:24:41;6.80;96.10
44707;DHT22;30433;45.596;8.408;2023-02-28T13:31:01;6.90;96.60
44707;DHT22;30433;45.596;8.408;2023-02-28T13:56:23;7.20;96.20
44707;DHT22;30433;45.596;8.408;2023-02-28T14:02:40;7.00;95.80
44707;DHT22;30433;45.596;8.408;2023-02-28T14:08:51;7.10;96.30
44707;DHT22;30433;45.596;8.408;2023-02-28T14:14:56;6.90;95.80
44707;DHT22;30433;45.596;8.408;2023-02-28T14:21:01;7.00;96.00
44707;DHT22;30433;45.596;8.408;2023-02-28T14:33:31;7.10;95.70
44707;DHT22;30433;45.596;8.408;2023-02-28T14:39:33;7.10;95.50
44707;DHT22;30433;45.596;8.408;2023-02-28T14:45:37;7.00;96.20
44707;DHT22;30433;45.596;8.408;2023-02-28T14:51:40;7.10;95.70
44707;DHT22;30433;45.596;8.408;2023-02-28T14:57:50;7.10;96.10
44707;DHT22;30433;45.596;8.408;2023-02-28T15:04:00;7.30;95.60
44707;DHT22;30433;45.596;8.408;2023-02-28T15:10:08;7.10;95.40
44707;DHT22;30433;45.596;8.408;2023-02-28T15:16:10;6.80;95.30
44707;DHT22;30433;45.596;8.408;2023-02-28T15:22:14;7.20;95.30
44707;DHT22;30433;45.596;8.408;2023-02-28T15:28:19;7.00;95.60
44707;DHT22;30433;45.596;8.408;2023-02-28T15:34:34;7.00;96.30
44707;DHT22;30433;45.596;8.408;2023-02-28T15:40:37;6.90;96.30
44707;DHT22;30433;45.596;8.408;2023-02-28T15:46:41;7.00;95.90
44707;DHT22;30433;45.596;8.408;2023-02-28T15:52:45;6.90;95.70
44707;DHT22;30433;45.596;8.408;2023-02-28T15:58:47;6.90;95.60
44707;DHT22;30433;45.596;8.408;2023-02-28T16:04:58;6.90;95.50
44707;DHT22;30433;45.596;8.408;2023-02-28T16:11:01;6.80;95.90
44707;DHT22;30433;45.596;8.408;2023-02-28T16:17:04;6.80;95.80
44707;DHT22;30433;45.596;8.408;2023-02-28T16:23:10;6.70;95.50
44707;DHT22;30433;45.596;8.408;2023-02-28T16:29:13;6.60;95.90
44707;DHT22;30433;45.596;8.408;2023-02-28T16:35:16;6.50;96.10
44707;DHT22;30433;45.596;8.408;2023-02-28T16:41:20;6.50;95.70
44707;DHT22;30433;45.596;8.408;2023-02-28T16:47:23;6.30;96.20
44707;DHT22;30433;45.596;8.408;2023-02-28T16:53:27;6.10;96.70
44707;DHT22;30433;45.596;8.408;2023-02-28T16:59:30;5.80;97.30
44707;DHT22;30433;45.596;8.408;2023-02-28T17:05:33;5.50;98.20
44707;DHT22;30433;45.596;8.408;2023-02-28T17:11:36;5.20;98.50
44707;DHT22;30433;45.596;8.408;2023-02-28T17:17:40;5.20;98.20
44707;DHT22;30433;45.596;8.408;2023-02-28T17:23:42;5.20;98.30
44707;DHT22;30433;45.596;8.408;2023-02-28T17:29:44;4.90;98.50
44707;DHT22;30433;45.596;8.408;2023-02-28T17:35:48;4.90;98.40
44707;DHT22;30433;45.596;8.408;2023-02-28T17:41:51;4.50;98.60
44707;DHT22;30433;45.596;8.408;2023-02-28T17:47:53;4.60;98.70
44707;DHT22;30433;45.596;8.408;2023-02-28T17:53:56;4.10;98.40
44707;DHT22;30433;45.596;8.408;2023-02-28T17:59:59;3.90;99.40
44707;DHT22;30433;45.596;8.408;2023-02-28T18:06:05;4.00;98.50
44707;DHT22;30433;45.596;8.408;2023-02-28T18:12:09;4.00;98.50
44707;DHT22;30433;45.596;8.408;2023-02-28T18:18:11;4.00;98.60
44707;DHT22;30433;45.596;8.408;2023-02-28T18:24:14;3.20;98.80
44707;DHT22;30433;45.596;8.408;2023-02-28T18:30:18;3.10;99.70
44707;DHT22;30433;45.596;8.408;2023-02-28T18:36:20;3.30;99.60
44707;DHT22;30433;45.596;8.408;2023-02-28T18:42:22;3.60;99.10
44707;DHT22;30433;45.596;8.408;2023-02-28T18:48:25;3.30;98.90
44707;DHT22;30433;45.596;8.408;2023-02-28T18:54:27;2.60;99.90
44707;DHT22;30433;45.596;8.408;2023-02-28T19:00:29;2.30;99.90
44707;DHT22;30433;45.596;8.408;2023-02-28T19:06:33;2.50;99.90
44707;DHT22;30433;45.596;8.408;2023-02-28T19:12:37;2.70;99.60
44707;DHT22;30433;45.596;8.408;2023-02-28T19:18:41;2.70;99.50
44707;DHT22;30433;45.596;8.408;2023-02-28T19:24:45;2.40;99.70
44707;DHT22;30433;45.596;8.408;2023-02-28T19:30:47;2.40;99.90
44707;DHT22;30433;45.596;8.408;2023-02-28T19:36:49;1.60;99.90
44707;DHT22;30433;45.596;8.408;2023-02-28T19:42:53;1.90;99.90
44707;DHT22;30433;45.596;8.408;2023-02-28T19:48:55;2.20;99.90
44707;DHT22;30433;45.596;8.408;2023-02-28T19:54:57;2.20;99.80
44707;DHT22;30433;45.596;8.408;2023-02-28T20:01:06;1.80;99.90
44707;DHT22;30433;45.596;8.408;2023-02-28T20:07:08;2.10;99.90
44707;DHT22;30433;45.596;8.408;2023-02-28T20:13:10;2.00;99.90
44707;DHT22;30433;45.596;8.408;2023-02-28T20:19:14;1.90;99.90
44707;DHT22;30433;45.596;8.408;2023-02-28T20:25:18;1.90;99.90
44707;DHT22;30433;45.596;8.408;2023-02-28T20:31:21;1.80;99.90
44707;DHT22;30433;45.596;8.408;2023-02-28T20:37:25;0.90;99.90
44707;DHT22;30433;45.596;8.408;2023-02-28T20:43:28;1.50;99.90
44707;DHT22;30433;45.596;8.408;2023-02-28T20:49:30;1.10;99.90
44707;DHT22;30433;45.596;8.408;2023-02-28T20:55:34;1.00;99.90
44707;DHT22;30433;45.596;8.408;2023-02-28T21:01:36;0.80;99.90
44707;DHT22;30433;45.596;8.408;2023-02-28T21:07:40;0.80;99.90
44707;DHT22;30433;45.596;8.408;2023-02-28T21:13:43;1.40;99.90
44707;DHT22;30433;45.596;8.408;2023-02-28T21:19:46;1.20;99.90
44707;DHT22;30433;45.596;8.408;2023-02-28T21:25:48;0.80;99.90
44707;DHT22;30433;45.596;8.408;2023-02-28T21:31:52;1.10;99.90
44707;DHT22;30433;45.596;8.408;2023-02-28T21:37:54;1.60;99.90
44707;DHT22;30433;45.596;8.408;2023-02-28T21:43:56;1.00;99.90
44707;DHT22;30433;45.596;8.408;2023-02-28T21:50:00;1.20;99.90
44707;DHT22;30433;45.596;8.408;2023-02-28T21:56:02;1.50;99.90
44707;DHT22;30433;45.596;8.408;2023-02-28T22:02:04;1.90;99.90
44707;DHT22;30433;45.596;8.408;2023-02-28T22:08:08;1.50;99.90
44707;DHT22;30433;45.596;8.408;2023-02-28T22:14:10;1.40;99.90
44707;DHT22;30433;45.596;8.408;2023-02-28T22:20:12;2.00;99.90
44707;DHT22;30433;45.596;8.408;2023-02-28T22:26:16;2.20;99.90
44707;DHT22;30433;45.596;8.408;2023-02-28T22:32:19;2.20;99.90
44707;DHT22;30433;45.596;8.408;2023-02-28T22:38:21;2.00;99.90
44707;DHT22;30433;45.596;8.408;2023-02-28T22:44:24;2.10;99.90
44707;DHT22;30433;45.596;8.408;2023-02-28T22:50:26;2.10;99.90
44707;DHT22;30433;45.596;8.408;2023-02-28T22:56:29;2.20;99.90
44707;DHT22;30433;45.596;8.408;2023-02-28T23:02:32;2.30;99.90
44707;DHT22;30433;45.596;8.408;2023-02-28T23:08:35;2.40;99.90
44707;DHT22;30433;45.596;8.408;2023-02-28T23:14:36;2.40;99.90
44707;DHT22;30433;45.596;8.408;2023-02-28T23:20:40;2.50;99.90
44707;DHT22;30433;45.596;8.408;2023-02-28T23:26:42;2.50;99.90
44707;DHT22;30433;45.596;8.408;2023-02-28T23:32:44;2.60;99.90
44707;DHT22;30433;45.596;8.408;2023-02-28T23:38:48;2.60;99.90
44707;DHT22;30433;45.596;8.408;2023-02-28T23:44:51;2.60;99.90
44707;DHT22;30433;45.596;8.408;2023-02-28T23:50:53;2.70;99.90
44707;DHT22;30433;45.596;8.408;2023-02-28T23:56:58;2.80;99.90
